Time;durP1;ratioP1;P1;durP2;ratioP2;P2;SDS_P1;SDS_P2;PMS_P1;PMS_P2;Temp;Humidity;BMP_temperature;BMP_pressure;BME280_temperature;BME280_humidity;BME280_pressure;Samples;Min_cycle;Max_cycle;Signal;HPM_P1;HPM_P2
2022/12/11 00:01:18;;;;;;;;;;;0.70;97.60;;;;;;5056400;28;19996;-73
2022/12/11 00:03:46;;;;;;;;;;;0.70;97.60;;;;;;5061012;28;19979;-73
2022/12/11 00:06:14;;;;;;;;;;;0.70;97.60;;;;;;5056688;28;19983;-73
2022/12/11 00:08:41;;;;;;;;;;;0.70;97.60;;;;;;5063078;28;20047;-72
2022/12/11 00:11:08;;;;;;;;;;;0.70;97.60;;;;;;5062798;28;20002;-74
2022/12/11 00:13:34;;;;;;;;;;;0.70;97.60;;;;;;5065354;28;20018;-73
2022/12/11 00:16:01;;;;;;;;;;;0.70;97.60;;;;;;5062287;28;19995;-73
2022/12/11 00:18:27;;;;;;;;;;;0.70;97.60;;;;;;5059325;28;20572;-73
2022/12/11 00:21:00;;;;;;;;;;;0.70;97.60;;;;;;5061099;28;19995;-73
2022/12/11 00:23:26;;;;;;;;;;;0.70;97.60;;;;;;5063238;28;20406;-73
2022/12/11 00:25:53;;;;;;;;;;;0.70;97.60;;;;;;5063151;28;19987;-73
2022/12/11 00:28:20;;;;;;;;;;;0.70;97.60;;;;;;5066535;28;19975;-73
2022/12/11 00:30:46;;;;;;;;;;;0.70;97.60;;;;;;5065394;28;20029;-74
2022/12/11 00:33:13;;;;;;;;;;;0.70;97.60;;;;;;5086208;28;20002;-73
2022/12/11 00:35:40;;;;;;;;;;;0.70;97.70;;;;;;5086286;28;19983;-72
2022/12/11 00:38:08;;;;;;;;;;;0.70;97.70;;;;;;5084487;28;19982;-73
2022/12/11 00:40:36;;;;;;;;;;;0.70;97.70;;;;;;5084426;28;20076;-73
2022/12/11 00:43:03;;;;;;;;;;;0.70;97.70;;;;;;5090534;28;19979;-73
2022/12/11 00:45:29;;;;;;;;;;;0.70;97.70;;;;;;5084872;28;20002;-73
2022/12/11 00:47:56;;;;;;;;;;;0.70;97.70;;;;;;5075406;28;20010;-73
2022/12/11 00:50:22;;;;;;;;;;;0.70;97.70;;;;;;5081853;28;19994;-73
2022/12/11 00:52:49;;;;;;;;;;;0.70;97.70;;;;;;5086240;28;19995;-73
2022/12/11 00:55:18;;;;;;;;;;;0.70;97.60;;;;;;5083090;28;19998;-73
2022/12/11 00:57:44;;;;;;;;;;;0.70;97.60;;;;;;5086755;28;19979;-73
2022/12/11 01:00:12;;;;;;;;;;;0.70;97.60;;;;;;5085746;28;20002;-72
2022/12/11 01:02:39;;;;;;;;;;;0.70;97.70;;;;;;5062759;28;20048;-74
2022/12/11 01:05:06;;;;;;;;;;;0.70;97.60;;;;;;5062318;28;19975;-73
2022/12/11 01:07:32;;;;;;;;;;;0.70;97.70;;;;;;5067536;28;19979;-73
2022/12/11 01:12:45;;;;;;;;;;;0.70;97.60;;;;;;5062142;28;19986;-73
2022/12/11 01:15:11;;;;;;;;;;;0.70;97.60;;;;;;5061808;28;19999;-73
2022/12/11 01:17:38;;;;;;;;;;;0.70;97.60;;;;;;5059244;28;20014;-73
2022/12/11 01:20:05;;;;;;;;;;;0.70;97.60;;;;;;5062701;28;19995;-73
2022/12/11 01:22:32;;;;;;;;;;;0.70;97.70;;;;;;5065427;28;19979;-73
2022/12/11 01:24:59;;;;;;;;;;;0.70;97.70;;;;;;5057024;28;19979;-73
2022/12/11 01:27:25;;;;;;;;;;;0.70;97.70;;;;;;5063765;28;19983;-73
2022/12/11 01:29:53;;;;;;;;;;;0.70;97.70;;;;;;5063473;28;19995;-72
2022/12/11 01:32:20;;;;;;;;;;;0.70;97.70;;;;;;5061682;28;20801;-73
2022/12/11 01:34:46;;;;;;;;;;;0.70;97.80;;;;;;5062418;28;19995;-73
2022/12/11 01:37:13;;;;;;;;;;;0.70;97.80;;;;;;5062901;28;19979;-72
2022/12/11 01:39:39;;;;;;;;;;;0.70;97.80;;;;;;5062119;28;20474;-73
2022/12/11 01:42:09;;;;;;;;;;;0.70;97.80;;;;;;5054167;28;20248;-73
2022/12/11 01:44:54;;;;;;;;;;;0.70;97.80;;;;;;5063588;28;20467;-72
2022/12/11 01:47:22;;;;;;;;;;;0.70;97.80;;;;;;5055816;28;19999;-73
2022/12/11 01:49:48;;;;;;;;;;;0.70;97.80;;;;;;5060601;28;20018;-73
2022/12/11 01:52:17;;;;;;;;;;;0.70;97.80;;;;;;5058186;28;19976;-73
2022/12/11 01:54:44;;;;;;;;;;;0.70;97.80;;;;;;5058643;28;20382;-73
2022/12/11 01:57:11;;;;;;;;;;;0.70;97.80;;;;;;5054484;28;19975;-73
2022/12/11 01:59:39;;;;;;;;;;;0.70;97.80;;;;;;5060320;28;19986;-72
2022/12/11 02:02:07;;;;;;;;;;;0.70;97.80;;;;;;5059612;28;19995;-73
2022/12/11 02:04:36;;;;;;;;;;;0.70;97.80;;;;;;5056648;28;20364;-73
2022/12/11 02:07:03;;;;;;;;;;;0.70;97.80;;;;;;5060788;28;19983;-73
2022/12/11 02:09:31;;;;;;;;;;;0.70;97.80;;;;;;5061881;28;20035;-73
2022/12/11 02:12:01;;;;;;;;;;;0.70;97.80;;;;;;5058505;28;19975;-74
2022/12/11 02:14:29;;;;;;;;;;;0.70;97.80;;;;;;5058850;28;21261;-73
2022/12/11 02:16:59;;;;;;;;;;;0.70;97.80;;;;;;5059534;28;19995;-73
2022/12/11 02:19:42;;;;;;;;;;;0.70;97.80;;;;;;5063355;28;20490;-73
2022/12/11 02:22:11;;;;;;;;;;;0.70;97.80;;;;;;5062179;28;19985;-73
2022/12/11 02:24:47;;;;;;;;;;;0.70;97.80;;;;;;5060037;28;19979;-73
2022/12/11 02:27:31;;;;;;;;;;;0.70;97.80;;;;;;5062443;28;20446;-72
2022/12/11 02:30:01;;;;;;;;;;;0.70;97.80;;;;;;5057425;28;20553;-73
2022/12/11 02:32:31;;;;;;;;;;;0.70;97.70;;;;;;5057533;28;19995;-73
2022/12/11 02:35:02;;;;;;;;;;;0.70;97.70;;;;;;5052296;28;19992;-73
2022/12/11 02:37:31;;;;;;;;;;;0.70;97.70;;;;;;5056359;28;20014;-73
2022/12/11 02:39:57;;;;;;;;;;;0.70;97.70;;;;;;5049637;28;19995;-73
2022/12/11 02:42:28;;;;;;;;;;;0.70;97.70;;;;;;5059662;28;19991;-73
2022/12/11 02:44:56;;;;;;;;;;;0.70;97.70;;;;;;5055067;28;19986;-73
2022/12/11 02:47:26;;;;;;;;;;;0.70;97.70;;;;;;5057749;28;20090;-73
2022/12/11 02:49:54;;;;;;;;;;;0.70;97.70;;;;;;5061146;28;20054;-73
2022/12/11 02:52:21;;;;;;;;;;;0.70;97.60;;;;;;5060674;28;19983;-73
2022/12/11 02:54:49;;;;;;;;;;;0.70;97.60;;;;;;5052550;28;20446;-73
2022/12/11 02:57:16;;;;;;;;;;;0.70;97.60;;;;;;5063317;28;19983;-73
2022/12/11 02:59:44;;;;;;;;;;;0.70;97.60;;;;;;5060696;28;19995;-73
2022/12/11 03:02:11;;;;;;;;;;;0.70;97.60;;;;;;5061525;28;20014;-72
2022/12/11 03:04:40;;;;;;;;;;;0.70;97.80;;;;;;5052430;28;19979;-72
2022/12/11 03:07:11;;;;;;;;;;;0.70;97.60;;;;;;5061819;28;19982;-73
2022/12/11 03:09:39;;;;;;;;;;;0.70;97.60;;;;;;5054009;28;20459;-72
2022/12/11 03:12:06;;;;;;;;;;;0.70;97.60;;;;;;5061567;28;20062;-72
2022/12/11 03:14:32;;;;;;;;;;;0.70;97.60;;;;;;5056172;28;19995;-72
2022/12/11 03:17:03;;;;;;;;;;;0.70;97.60;;;;;;5059458;28;19991;-72
2022/12/11 03:19:34;;;;;;;;;;;0.70;97.60;;;;;;5062931;28;20378;-72
2022/12/11 03:22:04;;;;;;;;;;;0.60;97.60;;;;;;5056304;28;20470;-72
2022/12/11 03:24:34;;;;;;;;;;;0.70;97.60;;;;;;5057275;28;19991;-72
2022/12/11 03:27:05;;;;;;;;;;;0.70;97.60;;;;;;5058336;28;19975;-72
2022/12/11 03:29:35;;;;;;;;;;;0.70;97.60;;;;;;5056023;28;19975;-72
2022/12/11 03:32:04;;;;;;;;;;;0.70;97.60;;;;;;5058602;28;20014;-72
2022/12/11 03:34:33;;;;;;;;;;;0.60;97.60;;;;;;5061346;28;19995;-71
2022/12/11 03:37:00;;;;;;;;;;;0.60;97.60;;;;;;5055535;28;19979;-72
2022/12/11 03:39:29;;;;;;;;;;;0.60;97.50;;;;;;5063806;28;19986;-73
2022/12/11 03:41:57;;;;;;;;;;;0.60;97.50;;;;;;5053869;28;19980;-73
2022/12/11 03:44:23;;;;;;;;;;;0.60;97.50;;;;;;5058375;28;19980;-72
2022/12/11 03:46:52;;;;;;;;;;;0.60;97.50;;;;;;5053616;28;19999;-71
2022/12/11 03:49:21;;;;;;;;;;;0.60;97.50;;;;;;5062850;28;19976;-72
2022/12/11 03:51:48;;;;;;;;;;;0.60;97.50;;;;;;5062506;28;19999;-72
2022/12/11 03:54:15;;;;;;;;;;;0.60;97.50;;;;;;5056962;28;20002;-71
2022/12/11 03:56:43;;;;;;;;;;;0.60;97.50;;;;;;5058314;28;19991;-72
2022/12/11 03:59:10;;;;;;;;;;;0.60;97.50;;;;;;5060586;28;19999;-72
2022/12/11 04:01:37;;;;;;;;;;;0.60;97.50;;;;;;5055080;28;20003;-70
2022/12/11 04:04:04;;;;;;;;;;;0.60;97.50;;;;;;5058477;28;19980;-72
2022/12/11 04:06:30;;;;;;;;;;;0.60;97.50;;;;;;5056934;28;19983;-72
2022/12/11 04:08:57;;;;;;;;;;;0.60;97.50;;;;;;5051157;28;20002;-72
2022/12/11 04:11:35;;;;;;;;;;;0.60;97.50;;;;;;5060956;28;20003;-71
2022/12/11 04:16:48;;;;;;;;;;;0.50;97.50;;;;;;5063657;28;20002;-73
2022/12/11 04:24:54;;;;;;;;;;;0.50;97.50;;;;;;4982839;28;20420;-74
2022/12/11 04:30:04;;;;;;;;;;;0.50;97.50;;;;;;5058723;28;19998;-73
2022/12/11 04:32:30;;;;;;;;;;;0.50;97.50;;;;;;5062720;28;19999;-73
2022/12/11 04:34:57;;;;;;;;;;;0.50;97.50;;;;;;5054417;28;19995;-72
2022/12/11 04:37:23;;;;;;;;;;;0.50;97.40;;;;;;5059635;28;20038;-74
2022/12/11 04:39:50;;;;;;;;;;;0.50;97.40;;;;;;5063665;28;19995;-73
2022/12/11 04:42:16;;;;;;;;;;;0.50;97.40;;;;;;5060410;28;19971;-73
2022/12/11 04:44:43;;;;;;;;;;;0.50;97.40;;;;;;5065260;28;20390;-73
2022/12/11 04:47:11;;;;;;;;;;;0.50;97.40;;;;;;5063320;28;20346;-72
2022/12/11 04:49:37;;;;;;;;;;;0.50;97.40;;;;;;5065998;28;19987;-72
2022/12/11 04:52:04;;;;;;;;;;;0.50;97.40;;;;;;5056277;28;20011;-73
2022/12/11 04:54:31;;;;;;;;;;;0.50;97.40;;;;;;5055882;28;19999;-73
2022/12/11 04:56:57;;;;;;;;;;;0.50;97.40;;;;;;5055653;28;19980;-73
2022/12/11 04:59:24;;;;;;;;;;;0.50;97.40;;;;;;5065052;28;19979;-72
2022/12/11 05:01:51;;;;;;;;;;;0.50;97.40;;;;;;5057559;28;20002;-73
2022/12/11 05:04:18;;;;;;;;;;;0.50;97.40;;;;;;5058593;28;20338;-72
2022/12/11 05:06:45;;;;;;;;;;;0.50;97.40;;;;;;5065288;28;19990;-72
2022/12/11 05:09:12;;;;;;;;;;;0.50;97.40;;;;;;5059107;28;19982;-73
2022/12/11 05:11:39;;;;;;;;;;;0.50;97.40;;;;;;5058749;28;19995;-73
2022/12/11 05:14:05;;;;;;;;;;;0.50;97.40;;;;;;5064458;28;19975;-72
2022/12/11 05:16:32;;;;;;;;;;;0.50;97.40;;;;;;5057301;28;19995;-72
2022/12/11 05:18:58;;;;;;;;;;;0.50;97.40;;;;;;5060753;28;19975;-73
2022/12/11 05:21:26;;;;;;;;;;;0.40;97.40;;;;;;5060718;28;20002;-72
2022/12/11 05:23:53;;;;;;;;;;;0.40;97.40;;;;;;5064096;28;19983;-72
2022/12/11 05:26:20;;;;;;;;;;;0.50;97.50;;;;;;5063985;28;19983;-72
2022/12/11 05:28:47;;;;;;;;;;;0.40;97.40;;;;;;5061460;28;20408;-73
2022/12/11 05:31:14;;;;;;;;;;;0.40;97.40;;;;;;5068622;28;19995;-72
2022/12/11 05:33:41;;;;;;;;;;;0.40;97.40;;;;;;5085280;28;19986;-72
2022/12/11 05:36:08;;;;;;;;;;;0.40;97.40;;;;;;5084801;28;20370;-72
2022/12/11 05:38:36;;;;;;;;;;;0.40;97.40;;;;;;5084422;28;19986;-72
2022/12/11 05:41:04;;;;;;;;;;;0.50;97.50;;;;;;5084253;28;19987;-73
2022/12/11 05:43:32;;;;;;;;;;;0.40;97.40;;;;;;5087148;28;19979;-72
2022/12/11 05:46:04;;;;;;;;;;;0.40;97.40;;;;;;5075093;28;19994;-72
2022/12/11 05:48:31;;;;;;;;;;;0.40;97.50;;;;;;5058785;28;19987;-72
2022/12/11 05:50:58;;;;;;;;;;;0.40;97.80;;;;;;5064296;28;19987;-72
2022/12/11 05:53:25;;;;;;;;;;;0.40;97.50;;;;;;5065264;28;20066;-72
2022/12/11 05:55:53;;;;;;;;;;;0.40;97.50;;;;;;5059809;28;20665;-72
2022/12/11 05:58:19;;;;;;;;;;;0.40;97.50;;;;;;5064768;28;19986;-72
2022/12/11 06:00:46;;;;;;;;;;;0.40;97.50;;;;;;5058738;28;20002;-72
2022/12/11 06:03:13;;;;;;;;;;;0.40;97.50;;;;;;5064405;28;20439;-72
2022/12/11 06:05:39;;;;;;;;;;;0.40;97.50;;;;;;5058455;28;20002;-72
2022/12/11 06:08:06;;;;;;;;;;;0.40;97.50;;;;;;5056316;28;19972;-72
2022/12/11 06:10:33;;;;;;;;;;;0.30;97.40;;;;;;5055726;28;20002;-72
2022/12/11 06:13:01;;;;;;;;;;;0.30;97.40;;;;;;5056098;28;19979;-72
2022/12/11 06:15:27;;;;;;;;;;;0.30;97.40;;;;;;5058199;28;20022;-71
2022/12/11 06:17:54;;;;;;;;;;;0.30;97.40;;;;;;5061817;28;20443;-72
2022/12/11 06:20:20;;;;;;;;;;;0.30;97.40;;;;;;5058580;28;20037;-72
2022/12/11 06:22:47;;;;;;;;;;;0.30;97.50;;;;;;5060243;28;20100;-72
2022/12/11 06:25:14;;;;;;;;;;;0.30;97.50;;;;;;5061441;28;20015;-72
2022/12/11 06:27:40;;;;;;;;;;;0.30;97.50;;;;;;5062734;28;19980;-72
2022/12/11 06:30:10;;;;;;;;;;;0.30;97.50;;;;;;5061453;28;19998;-73
2022/12/11 06:32:36;;;;;;;;;;;0.30;97.50;;;;;;5059657;28;19990;-71
2022/12/11 06:35:03;;;;;;;;;;;0.30;97.50;;;;;;5056325;28;20002;-72
2022/12/11 06:37:30;;;;;;;;;;;0.30;97.50;;;;;;5053920;28;20355;-73
2022/12/11 06:39:56;;;;;;;;;;;0.30;97.50;;;;;;5060322;28;19996;-73
2022/12/11 06:42:23;;;;;;;;;;;0.30;97.50;;;;;;5059273;28;19975;-72
2022/12/11 06:44:49;;;;;;;;;;;0.30;97.50;;;;;;5056825;28;19976;-72
2022/12/11 06:47:17;;;;;;;;;;;0.30;97.50;;;;;;5050861;28;19999;-72
2022/12/11 06:49:44;;;;;;;;;;;0.30;97.50;;;;;;5063974;28;19999;-72
2022/12/11 06:52:10;;;;;;;;;;;0.20;97.50;;;;;;5061398;28;20027;-72
2022/12/11 06:54:37;;;;;;;;;;;0.30;97.50;;;;;;5061871;28;19986;-72
2022/12/11 06:57:04;;;;;;;;;;;0.20;97.50;;;;;;5060236;28;19983;-72
2022/12/11 06:59:30;;;;;;;;;;;0.20;97.50;;;;;;5058905;28;20052;-73
2022/12/11 07:01:57;;;;;;;;;;;0.20;97.50;;;;;;5077431;28;20485;-72
2022/12/11 07:04:26;;;;;;;;;;;0.20;97.50;;;;;;5077442;28;20339;-72
2022/12/11 07:06:53;;;;;;;;;;;0.20;97.50;;;;;;5082210;28;19982;-72
2022/12/11 07:09:21;;;;;;;;;;;0.20;97.50;;;;;;5082285;28;19982;-72
2022/12/11 07:11:49;;;;;;;;;;;0.20;97.50;;;;;;5082055;28;19995;-73
2022/12/11 07:14:15;;;;;;;;;;;0.20;97.50;;;;;;5084284;28;19975;-72
2022/12/11 07:16:42;;;;;;;;;;;0.20;97.50;;;;;;5068312;28;20003;-72
2022/12/11 07:19:08;;;;;;;;;;;0.10;97.50;;;;;;5059598;28;19975;-73
2022/12/11 07:21:36;;;;;;;;;;;0.10;97.50;;;;;;5060341;28;19995;-72
2022/12/11 07:24:03;;;;;;;;;;;0.10;97.50;;;;;;5062716;28;19987;-72
2022/12/11 07:26:30;;;;;;;;;;;0.10;97.50;;;;;;5060395;28;19979;-72
2022/12/11 07:28:56;;;;;;;;;;;0.10;97.50;;;;;;5063707;28;20009;-72
2022/12/11 07:31:24;;;;;;;;;;;0.10;97.50;;;;;;5061493;28;20364;-72
2022/12/11 07:33:52;;;;;;;;;;;0.10;97.50;;;;;;5058988;28;20068;-72
2022/12/11 07:36:19;;;;;;;;;;;0.10;97.50;;;;;;5053685;28;19998;-73
2022/12/11 07:38:47;;;;;;;;;;;0.10;97.50;;;;;;5058655;28;19980;-72
2022/12/11 07:41:14;;;;;;;;;;;0.10;97.50;;;;;;5061929;28;20034;-72
2022/12/11 07:43:41;;;;;;;;;;;0.00;97.50;;;;;;5057041;28;20681;-72
2022/12/11 07:46:10;;;;;;;;;;;0.10;97.50;;;;;;5059880;28;19998;-72
2022/12/11 07:48:37;;;;;;;;;;;0.00;97.50;;;;;;5065603;28;19978;-71
2022/12/11 07:51:07;;;;;;;;;;;0.00;97.60;;;;;;5066024;28;20577;-72
2022/12/11 07:53:34;;;;;;;;;;;0.00;97.60;;;;;;5059219;28;19991;-73
2022/12/11 07:56:02;;;;;;;;;;;0.00;97.60;;;;;;5064444;28;19983;-73
2022/12/11 07:58:28;;;;;;;;;;;0.00;97.60;;;;;;5064549;28;19975;-72
2022/12/11 08:00:55;;;;;;;;;;;0.00;97.60;;;;;;5061702;28;20648;-72
2022/12/11 08:03:21;;;;;;;;;;;0.00;97.60;;;;;;5066810;28;19976;-73
2022/12/11 08:05:49;;;;;;;;;;;0.00;97.60;;;;;;5063844;28;20739;-72
2022/12/11 08:08:15;;;;;;;;;;;0.00;97.60;;;;;;5063120;28;19983;-73
2022/12/11 08:10:42;;;;;;;;;;;0.00;97.60;;;;;;5063972;28;20003;-72
2022/12/11 08:13:10;;;;;;;;;;;0.00;97.60;;;;;;5065486;28;19983;-72
2022/12/11 08:15:37;;;;;;;;;;;0.00;97.60;;;;;;5059770;28;20031;-71
2022/12/11 08:18:04;;;;;;;;;;;0.00;97.60;;;;;;5064475;28;19978;-73
2022/12/11 08:20:30;;;;;;;;;;;0.00;97.60;;;;;;5065859;28;20002;-72
2022/12/11 08:22:57;;;;;;;;;;;0.00;97.60;;;;;;5064472;28;19985;-72
2022/12/11 08:25:24;;;;;;;;;;;0.00;97.60;;;;;;5064727;28;19990;-72
2022/12/11 08:27:50;;;;;;;;;;;0.00;97.60;;;;;;5061898;28;20447;-72
2022/12/11 08:30:18;;;;;;;;;;;0.00;97.60;;;;;;5065792;28;20018;-72
2022/12/11 08:32:45;;;;;;;;;;;0.00;97.80;;;;;;5083571;28;19983;-72
2022/12/11 08:35:11;;;;;;;;;;;0.00;97.60;;;;;;5084974;28;19978;-72
2022/12/11 08:37:39;;;;;;;;;;;0.00;97.60;;;;;;5086121;28;20005;-72
2022/12/11 08:40:06;;;;;;;;;;;0.00;97.60;;;;;;5081558;28;19995;-72
2022/12/11 08:42:32;;;;;;;;;;;0.00;97.60;;;;;;5085713;28;19990;-72
2022/12/11 08:44:59;;;;;;;;;;;0.00;97.60;;;;;;5084162;28;19975;-72
2022/12/11 08:47:27;;;;;;;;;;;0.00;97.60;;;;;;5058102;28;20088;-73
2022/12/11 08:49:54;;;;;;;;;;;0.00;97.60;;;;;;5061071;28;19996;-72
2022/12/11 08:52:20;;;;;;;;;;;0.00;97.60;;;;;;5064952;28;19975;-72
2022/12/11 08:54:47;;;;;;;;;;;0.10;97.60;;;;;;5063382;28;19983;-72
2022/12/11 08:57:13;;;;;;;;;;;0.00;97.60;;;;;;5065859;28;19994;-72
2022/12/11 08:59:40;;;;;;;;;;;0.10;97.60;;;;;;5062675;28;19971;-72
2022/12/11 09:02:07;;;;;;;;;;;0.10;97.60;;;;;;5061617;28;19993;-72
2022/12/11 09:04:35;;;;;;;;;;;0.10;97.60;;;;;;5055572;28;19976;-71
2022/12/11 09:07:01;;;;;;;;;;;0.10;97.60;;;;;;5059809;28;20415;-72
2022/12/11 09:09:28;;;;;;;;;;;0.10;97.60;;;;;;5059341;28;20152;-72
2022/12/11 09:11:55;;;;;;;;;;;0.10;97.50;;;;;;5063117;28;20053;-72
2022/12/11 09:14:21;;;;;;;;;;;0.10;97.50;;;;;;5058794;28;19975;-72
2022/12/11 09:16:48;;;;;;;;;;;0.10;97.50;;;;;;5057609;28;19999;-72
2022/12/11 09:19:16;;;;;;;;;;;0.10;97.50;;;;;;5062165;28;20821;-72
2022/12/11 09:21:44;;;;;;;;;;;0.10;97.50;;;;;;5063307;28;20002;-72
2022/12/11 09:24:12;;;;;;;;;;;0.20;97.50;;;;;;5062549;28;19982;-72
2022/12/11 09:26:39;;;;;;;;;;;0.20;97.50;;;;;;5062402;28;20428;-73
2022/12/11 09:29:05;;;;;;;;;;;0.20;97.80;;;;;;5063845;28;19975;-72
2022/12/11 09:31:33;;;;;;;;;;;0.20;97.50;;;;;;5060013;28;20003;-72
2022/12/11 09:34:00;;;;;;;;;;;0.20;97.50;;;;;;5063467;28;20416;-72
2022/12/11 09:36:27;;;;;;;;;;;0.20;97.40;;;;;;5063739;28;20359;-72
2022/12/11 09:38:55;;;;;;;;;;;0.20;97.40;;;;;;5064451;28;19990;-72
2022/12/11 09:41:43;;;;;;;;;;;0.20;97.40;;;;;;5056982;28;20078;-72
2022/12/11 09:44:16;;;;;;;;;;;0.20;97.40;;;;;;5057064;28;19975;-72
2022/12/11 09:46:43;;;;;;;;;;;0.20;97.40;;;;;;5059190;28;20479;-72
2022/12/11 09:49:14;;;;;;;;;;;0.20;97.40;;;;;;5064312;28;19991;-72
2022/12/11 09:51:42;;;;;;;;;;;0.20;97.40;;;;;;5059648;28;20012;-72
2022/12/11 09:54:12;;;;;;;;;;;0.30;97.40;;;;;;5059102;28;19994;-71
2022/12/11 09:56:40;;;;;;;;;;;0.30;97.40;;;;;;5064403;28;19991;-72
2022/12/11 09:59:13;;;;;;;;;;;0.30;97.40;;;;;;5063534;28;19976;-72
2022/12/11 10:01:44;;;;;;;;;;;0.30;97.40;;;;;;5073921;28;19999;-73
2022/12/11 10:04:18;;;;;;;;;;;0.30;97.30;;;;;;5084329;28;19982;-72
2022/12/11 10:06:47;;;;;;;;;;;0.30;97.30;;;;;;5084380;28;19986;-74
2022/12/11 10:09:18;;;;;;;;;;;0.30;97.30;;;;;;5084697;28;19979;-71
2022/12/11 10:11:53;;;;;;;;;;;0.30;97.30;;;;;;5081414;28;20014;-72
2022/12/11 10:14:24;;;;;;;;;;;0.30;97.20;;;;;;5081283;28;19974;-73
2022/12/11 10:16:52;;;;;;;;;;;0.30;97.20;;;;;;5065860;28;20000;-72
2022/12/11 10:19:20;;;;;;;;;;;0.40;97.20;;;;;;5058738;28;19983;-73
2022/12/11 10:21:49;;;;;;;;;;;0.40;97.20;;;;;;5061474;28;20555;-72
2022/12/11 10:24:20;;;;;;;;;;;0.40;97.20;;;;;;5062248;28;19995;-73
2022/12/11 10:26:46;;;;;;;;;;;0.40;97.20;;;;;;5060328;28;19979;-73
2022/12/11 10:29:14;;;;;;;;;;;0.40;97.20;;;;;;5057101;28;19975;-71
2022/12/11 10:31:43;;;;;;;;;;;0.40;97.20;;;;;;5057153;28;19999;-73
2022/12/11 10:34:12;;;;;;;;;;;0.40;97.20;;;;;;5058533;28;20439;-72
2022/12/11 10:36:40;;;;;;;;;;;0.40;97.20;;;;;;5061708;28;19995;-72
2022/12/11 10:39:12;;;;;;;;;;;0.40;97.20;;;;;;5061522;28;19983;-72
2022/12/11 10:41:42;;;;;;;;;;;0.40;97.20;;;;;;5060314;28;20280;-72
2022/12/11 10:44:16;;;;;;;;;;;0.40;97.20;;;;;;5060275;28;19991;-71
2022/12/11 10:46:43;;;;;;;;;;;0.40;97.30;;;;;;5060431;28;20072;-73
2022/12/11 10:49:20;;;;;;;;;;;0.40;97.20;;;;;;5055648;28;20351;-72
2022/12/11 10:51:47;;;;;;;;;;;0.40;97.20;;;;;;5063045;28;20002;-73
2022/12/11 10:54:17;;;;;;;;;;;0.40;97.20;;;;;;5060284;28;19982;-71
2022/12/11 10:56:47;;;;;;;;;;;0.40;97.20;;;;;;5061254;28;19995;-73
2022/12/11 10:59:21;;;;;;;;;;;0.40;97.20;;;;;;5062787;28;19980;-72
2022/12/11 11:01:48;;;;;;;;;;;0.40;97.20;;;;;;5055417;28;19999;-72
2022/12/11 11:04:15;;;;;;;;;;;0.40;97.20;;;;;;5061250;28;20014;-72
2022/12/11 11:06:42;;;;;;;;;;;0.40;97.20;;;;;;5057502;28;19982;-73
2022/12/11 11:09:28;;;;;;;;;;;0.40;97.20;;;;;;5056472;28;19987;-72
2022/12/11 11:11:56;;;;;;;;;;;0.50;97.10;;;;;;5062231;28;19990;-72
2022/12/11 11:14:22;;;;;;;;;;;0.50;97.10;;;;;;5063052;28;19976;-72
2022/12/11 11:16:50;;;;;;;;;;;0.50;97.10;;;;;;5059354;28;19999;-72
2022/12/11 11:19:18;;;;;;;;;;;0.50;97.00;;;;;;5060630;28;20029;-71
2022/12/11 11:21:48;;;;;;;;;;;0.50;97.00;;;;;;5062593;28;20550;-72
2022/12/11 11:24:21;;;;;;;;;;;0.60;97.00;;;;;;5061034;28;20760;-72
2022/12/11 11:26:48;;;;;;;;;;;0.60;96.90;;;;;;5066030;28;19987;-72
2022/12/11 11:29:23;;;;;;;;;;;0.60;96.90;;;;;;5059097;28;20354;-72
2022/12/11 11:31:50;;;;;;;;;;;0.60;96.80;;;;;;5065337;28;20005;-72
2022/12/11 11:34:19;;;;;;;;;;;0.60;96.80;;;;;;5063315;28;19976;-72
2022/12/11 11:36:55;;;;;;;;;;;0.60;96.80;;;;;;5058540;28;19995;-72
2022/12/11 11:39:26;;;;;;;;;;;0.70;96.80;;;;;;5060929;28;20597;-71
2022/12/11 11:41:57;;;;;;;;;;;0.70;96.70;;;;;;5067033;28;19979;-72
2022/12/11 11:44:28;;;;;;;;;;;0.70;96.70;;;;;;5066501;28;19983;-72
2022/12/11 11:46:57;;;;;;;;;;;0.70;96.60;;;;;;5066027;28;20000;-72
2022/12/11 11:49:25;;;;;;;;;;;0.70;96.60;;;;;;5066818;28;20045;-72
2022/12/11 11:51:55;;;;;;;;;;;0.70;96.50;;;;;;5065886;28;19987;-72
2022/12/11 11:54:27;;;;;;;;;;;0.70;96.50;;;;;;5060356;28;19982;-72
2022/12/11 11:56:55;;;;;;;;;;;0.70;96.50;;;;;;5063976;28;20485;-72
2022/12/11 11:59:25;;;;;;;;;;;0.80;96.50;;;;;;5066937;28;19983;-72
2022/12/11 12:01:55;;;;;;;;;;;0.80;96.40;;;;;;5055088;28;20095;-72
2022/12/11 12:04:22;;;;;;;;;;;0.80;96.50;;;;;;5066170;28;19975;-72
2022/12/11 12:07:03;;;;;;;;;;;0.80;96.60;;;;;;5062146;28;19989;-72
2022/12/11 12:09:34;;;;;;;;;;;0.80;96.40;;;;;;5059222;28;19987;-72
2022/12/11 12:12:07;;;;;;;;;;;0.90;96.40;;;;;;5066245;28;19980;-72
2022/12/11 12:14:37;;;;;;;;;;;0.90;96.40;;;;;;5064445;28;19983;-72
2022/12/11 12:17:14;;;;;;;;;;;0.90;96.30;;;;;;5081773;28;19995;-72
2022/12/11 12:19:46;;;;;;;;;;;0.90;96.20;;;;;;5084236;28;19978;-72
2022/12/11 12:22:23;;;;;;;;;;;1.00;96.20;;;;;;5086906;28;20002;-72
2022/12/11 12:24:54;;;;;;;;;;;1.00;96.10;;;;;;5083148;28;19975;-72
2022/12/11 12:27:26;;;;;;;;;;;1.10;96.10;;;;;;5086459;28;19983;-72
2022/12/11 12:29:58;;;;;;;;;;;1.10;96.00;;;;;;5079472;28;19995;-72
2022/12/11 12:32:31;;;;;;;;;;;1.20;96.00;;;;;;5080029;28;19999;-72
2022/12/11 12:35:03;;;;;;;;;;;1.20;95.90;;;;;;5085003;28;19983;-71
2022/12/11 12:37:37;;;;;;;;;;;1.20;95.90;;;;;;5086427;28;19995;-72
2022/12/11 12:40:09;;;;;;;;;;;1.20;95.80;;;;;;5085951;28;19998;-72
2022/12/11 12:42:38;;;;;;;;;;;1.20;95.80;;;;;;5087095;28;19983;-72
2022/12/11 12:45:15;;;;;;;;;;;1.20;95.80;;;;;;5082135;28;19975;-72
2022/12/11 12:47:44;;;;;;;;;;;1.20;95.80;;;;;;5085385;28;20008;-72
2022/12/11 12:50:13;;;;;;;;;;;1.30;95.80;;;;;;5082111;28;20036;-72
2022/12/11 12:52:40;;;;;;;;;;;1.20;95.70;;;;;;5082539;28;20006;-72
2022/12/11 12:55:21;;;;;;;;;;;1.30;95.80;;;;;;5076431;28;19972;-72
2022/12/11 12:57:49;;;;;;;;;;;1.20;95.70;;;;;;5087072;28;20092;-72
2022/12/11 13:00:25;;;;;;;;;;;1.30;95.80;;;;;;5082951;28;19991;-72
2022/12/11 13:02:54;;;;;;;;;;;1.30;95.80;;;;;;5092433;28;19981;-72
2022/12/11 13:05:23;;;;;;;;;;;1.30;95.80;;;;;;5081728;28;20070;-72
2022/12/11 13:07:50;;;;;;;;;;;1.30;95.80;;;;;;5087484;28;20037;-72
2022/12/11 13:10:26;;;;;;;;;;;1.30;95.80;;;;;;5082878;28;20002;-72
2022/12/11 13:12:52;;;;;;;;;;;1.30;95.80;;;;;;5085047;28;20437;-72
2022/12/11 13:15:37;;;;;;;;;;;1.30;95.80;;;;;;5082367;28;19975;-72
2022/12/11 13:18:26;;;;;;;;;;;1.30;95.90;;;;;;5064046;28;19997;-72
2022/12/11 13:20:53;;;;;;;;;;;1.30;95.80;;;;;;5063986;28;19995;-72
2022/12/11 13:23:26;;;;;;;;;;;1.30;95.80;;;;;;5064631;28;19982;-72
2022/12/11 13:25:54;;;;;;;;;;;1.30;95.90;;;;;;5057944;28;20481;-72
2022/12/11 13:28:22;;;;;;;;;;;1.30;95.80;;;;;;5062774;28;20644;-72
2022/12/11 13:30:56;;;;;;;;;;;1.30;95.90;;;;;;5063958;28;20099;-72
2022/12/11 13:33:25;;;;;;;;;;;1.30;95.90;;;;;;5058407;28;20051;-72
2022/12/11 13:36:03;;;;;;;;;;;1.30;95.90;;;;;;5058521;28;19983;-72
2022/12/11 13:38:30;;;;;;;;;;;1.30;95.90;;;;;;5062431;28;20402;-71
2022/12/11 13:40:58;;;;;;;;;;;1.30;95.90;;;;;;5064115;28;19999;-72
2022/12/11 13:43:26;;;;;;;;;;;1.30;95.90;;;;;;5063058;28;19983;-72
2022/12/11 13:45:55;;;;;;;;;;;1.30;95.90;;;;;;5063681;28;20066;-71
2022/12/11 13:48:23;;;;;;;;;;;1.30;95.90;;;;;;5060687;28;20443;-72
2022/12/11 13:50:52;;;;;;;;;;;1.30;95.90;;;;;;5064369;28;20023;-72
2022/12/11 13:53:20;;;;;;;;;;;1.30;95.90;;;;;;5054550;28;19971;-71
2022/12/11 13:55:47;;;;;;;;;;;1.30;95.90;;;;;;5057868;28;20521;-71
2022/12/11 13:58:15;;;;;;;;;;;1.30;95.90;;;;;;5063666;28;19995;-72
2022/12/11 14:00:42;;;;;;;;;;;1.30;95.90;;;;;;5054688;28;20474;-72
2022/12/11 14:03:10;;;;;;;;;;;1.40;96.00;;;;;;5063813;28;19971;-72
2022/12/11 14:05:37;;;;;;;;;;;1.40;95.90;;;;;;5062622;28;19979;-72
2022/12/11 14:08:08;;;;;;;;;;;1.40;95.90;;;;;;5060180;28;20558;-71
2022/12/11 14:10:34;;;;;;;;;;;1.40;95.80;;;;;;5064139;28;20065;-72
2022/12/11 14:13:02;;;;;;;;;;;1.40;95.80;;;;;;5062863;28;19975;-72
2022/12/11 14:15:29;;;;;;;;;;;1.40;95.80;;;;;;5059540;28;20002;-71
2022/12/11 14:17:56;;;;;;;;;;;1.40;95.80;;;;;;5065035;28;20741;-71
2022/12/11 14:20:24;;;;;;;;;;;1.40;95.80;;;;;;5064195;28;20007;-72
2022/12/11 14:22:51;;;;;;;;;;;1.40;95.80;;;;;;5063655;28;19975;-72
2022/12/11 14:25:21;;;;;;;;;;;1.40;95.80;;;;;;5058742;28;19975;-72
2022/12/11 14:27:48;;;;;;;;;;;1.40;95.80;;;;;;5055691;28;19983;-72
2022/12/11 14:30:20;;;;;;;;;;;1.40;95.80;;;;;;5061764;28;19998;-71
2022/12/11 14:32:48;;;;;;;;;;;1.40;95.80;;;;;;5059786;28;19975;-71
2022/12/11 14:35:21;;;;;;;;;;;1.40;95.80;;;;;;5063433;28;20087;-72
2022/12/11 14:37:48;;;;;;;;;;;1.40;95.80;;;;;;5055928;28;19995;-72
2022/12/11 14:40:16;;;;;;;;;;;1.40;95.90;;;;;;5057062;28;19998;-72
2022/12/11 14:42:46;;;;;;;;;;;1.40;95.90;;;;;;5062472;28;19979;-71
2022/12/11 14:45:18;;;;;;;;;;;1.40;95.90;;;;;;5059139;28;19987;-70
2022/12/11 14:47:45;;;;;;;;;;;1.40;95.90;;;;;;5082044;28;19986;-72
2022/12/11 14:50:16;;;;;;;;;;;1.40;95.90;;;;;;5083581;28;20390;-72
2022/12/11 14:52:44;;;;;;;;;;;1.40;95.80;;;;;;5085318;28;20093;-71